Anderson Municipal Darlington Field

About
Name: Anderson Municipal Darlington Field
Identifier:  AID/KAID
Local Time:  20. Aug 09:39 EDT
Location
Flights per Day
0 flights
Distance: 350km (217mi)
Punctuality
50% (0 flights per day delayed)
Delay Average: 11 minutes
Current Weather
 25 C (Humidity: 83%)
  0kt (0km/h / 0mph) from 0°
  Scattered clouds at 3,000 feet (914 meter)
  Broken clouds at 3,900 feet (1,188 meter)
  Broken clouds at 6,000 feet (1,828 meter)
  16km (10 mi.)
 METAR KAID 201315Z AUTO 00000KT 10SM SCT030 BKN039 BKN060 25/22 A3008 RMK AO2 LTG DSNT N T02450221

Current Flights

Departures
Number Departure To Airline
Arrivals
Number Arrival From Airline

Current Delays

Departures
N/A
Arrivals
N/A

Destinations

Top Destinations
Airport Flights
per week
Seats
per week
  Huntingburg (HNB) 0 - 0 0
  Belleville (BLV) 0 - 0 0
  West Bend (ETB) 0 - 0 0
  Greenville (GMU) 0 - 0 0
  Chicago (DPA) 0 - 0 0
  Appleton (ATW) 0 - 0 0
  Cincinnati (LUK) 0 - 0 0

Airlines & Planes

Top Airlines
Airline Flights
per Day
Seats
per Day
  Flybe Nordic 0 -
  National Airlines 0 -
  Nolinor Aviation 0 -
Top Plane Types
Model Flights Seats
Beech G36 Bonanza 0.1/day - 0
Cessna C172 0.0/day - 0